createdAt,value
2023-04-22T21:09:48.395Z,97991.25
2023-04-22T21:12:15.115Z,97984.84
2023-04-22T21:14:43.455Z,97988.92
2023-04-22T21:17:21.474Z,97988.34
2023-04-22T21:19:49.878Z,97986.90
2023-04-22T21:22:19.713Z,97984.94
2023-04-22T21:24:47.618Z,97981.39
2023-04-22T21:27:14.108Z,97984.98
2023-04-22T21:29:40.560Z,97987.58
2023-04-22T21:32:09.159Z,97988.85
2023-04-22T21:34:37.150Z,97994.81
2023-04-22T21:37:04.215Z,97997.50
2023-04-22T21:39:30.688Z,97997.84
2023-04-22T21:42:02.120Z,97995.60
2023-04-22T21:44:28.487Z,97995.73
2023-04-22T21:46:54.858Z,97994.73
2023-04-22T21:49:21.238Z,97998.70
2023-04-22T21:51:47.798Z,97995.38
2023-04-22T21:54:14.167Z,97995.98
2023-04-22T21:56:40.571Z,97998.73
2023-04-22T21:59:07.073Z,97999.98
2023-04-22T22:01:33.473Z,97998.83
2023-04-22T22:04:00.312Z,98002.05
2023-04-22T22:06:26.903Z,97998.20
2023-04-22T22:08:53.425Z,97999.08
2023-04-22T22:11:30.228Z,97999.21
2023-04-22T22:13:58.186Z,98002.29
2023-04-22T22:16:24.908Z,97997.19
2023-04-22T22:18:51.721Z,97995.66
2023-04-22T22:21:18.200Z,97995.08
2023-04-22T22:23:44.584Z,97996.89
2023-04-22T22:26:11.342Z,97997.68
2023-04-22T22:28:37.986Z,98000.18
2023-04-22T22:31:04.531Z,98002.63
2023-04-22T22:33:30.987Z,98004.32
2023-04-22T22:35:57.523Z,98004.25
2023-04-22T22:38:23.923Z,98007.75
2023-04-22T22:40:50.264Z,98011.67
2023-04-22T22:43:16.742Z,98009.81
2023-04-22T22:45:43.130Z,98009.48
2023-04-22T22:48:09.744Z,98005.98
2023-04-22T22:50:36.345Z,98008.89
2023-04-22T22:53:02.808Z,98004.66
2023-04-22T22:55:29.261Z,98005.97
2023-04-22T22:57:55.771Z,98005.26
2023-04-22T23:00:22.222Z,98001.47
2023-04-22T23:02:49.001Z,98003.30
2023-04-22T23:05:15.808Z,98000.13
2023-04-22T23:07:42.240Z,98003.64
2023-04-22T23:10:09.097Z,98007.48
2023-04-22T23:12:35.489Z,98011.86
2023-04-22T23:15:02.258Z,98010.50
2023-04-22T23:17:28.704Z,98011.19
2023-04-22T23:19:55.238Z,98012.10
2023-04-22T23:22:22.249Z,98009.55
2023-04-22T23:24:48.716Z,98006.50
2023-04-22T23:27:15.385Z,98002.98
2023-04-22T23:29:42.196Z,98004.64
2023-04-22T23:32:10.049Z,98004.38
2023-04-22T23:34:40.793Z,97999.46
2023-04-22T23:37:09.367Z,98002.80
2023-04-22T23:39:36.037Z,98000.56
2023-04-22T23:42:02.414Z,97997.02
2023-04-22T23:44:28.777Z,97995.39
2023-04-22T23:46:55.204Z,97995.56
2023-04-22T23:49:21.850Z,97993.20
2023-04-22T23:51:48.679Z,97993.85
2023-04-22T23:54:15.015Z,97991.60
2023-04-22T23:56:41.833Z,97996.55
2023-04-22T23:59:08.520Z,97994.39
